createdAt,value
2019-05-30T00:00:36.822Z,12.12
2019-05-30T00:01:36.836Z,11.91
2019-05-30T00:02:36.823Z,12.08
2019-05-30T00:03:36.843Z,12.08
2019-05-30T00:04:36.832Z,12.09
2019-05-30T00:05:36.815Z,12.07
2019-05-30T00:06:36.816Z,12.08
2019-05-30T00:07:36.817Z,12.09
2019-05-30T00:08:36.809Z,12.08
2019-05-30T00:09:36.812Z,12.09
2019-05-30T00:10:36.814Z,12.07
2019-05-30T00:11:36.816Z,11.94
2019-05-30T00:12:36.813Z,12.06
2019-05-30T00:13:36.811Z,12.07
2019-05-30T00:14:44.579Z,12.07
2019-05-30T00:15:36.807Z,12.07
2019-05-30T00:16:44.612Z,12.07
2019-05-30T00:17:36.823Z,12.11
2019-05-30T00:18:36.807Z,12.04
2019-05-30T00:19:36.811Z,12.06
2019-05-30T00:20:36.876Z,12.07
2019-05-30T00:21:36.806Z,12.09
2019-05-30T00:22:36.816Z,12.08
2019-05-30T00:23:36.811Z,12.06
2019-05-30T00:24:36.812Z,12.06
2019-05-30T00:25:36.812Z,12.07
2019-05-30T00:26:36.821Z,12.06
2019-05-30T00:27:36.811Z,12.02
2019-05-30T00:28:36.797Z,11.94
2019-05-30T00:29:36.799Z,12.02
2019-05-30T00:30:36.806Z,12.06
2019-05-30T00:31:36.800Z,12.07
2019-05-30T00:32:36.809Z,12.06
2019-05-30T00:33:36.800Z,12.06
2019-05-30T00:34:36.797Z,11.92
2019-05-30T00:35:36.798Z,12.07
2019-05-30T00:36:36.797Z,12.03
2019-05-30T00:37:36.817Z,12.06
2019-05-30T00:38:36.799Z,12.06
2019-05-30T00:39:36.795Z,12.06
2019-05-30T00:40:36.796Z,12.04
2019-05-30T00:41:36.793Z,12.07
2019-05-30T00:42:36.792Z,12.03
2019-05-30T00:43:36.797Z,11.89
2019-05-30T00:44:36.791Z,12.07
2019-05-30T00:45:36.791Z,12.06
2019-05-30T00:46:36.793Z,12.07
2019-05-30T00:47:36.793Z,12.03
2019-05-30T00:48:36.792Z,12.04
2019-05-30T00:49:36.790Z,12.08
2019-05-30T00:50:36.790Z,12.07
2019-05-30T00:51:36.789Z,12.06
2019-05-30T00:52:36.806Z,12.06
2019-05-30T00:53:36.793Z,12.08
2019-05-30T00:54:36.788Z,11.89
2019-05-30T00:55:36.790Z,12.02
2019-05-30T00:56:36.785Z,12.07
2019-05-30T00:57:36.800Z,12.04
2019-05-30T00:58:36.787Z,12.07
2019-05-30T00:59:36.786Z,12.06
2019-05-30T01:00:43.346Z,11.92
2019-05-30T01:01:36.785Z,12.06
2019-05-30T01:02:36.795Z,12.06
2019-05-30T01:03:36.791Z,11.91
2019-05-30T01:04:36.781Z,12.03
2019-05-30T01:05:36.782Z,12.03
2019-05-30T01:06:36.790Z,12.04
2019-05-30T01:07:36.797Z,12.03
2019-05-30T01:08:36.786Z,12.03
2019-05-30T01:09:36.781Z,12.04
2019-05-30T01:10:36.783Z,11.99
2019-05-30T01:11:36.777Z,12.04
2019-05-30T01:12:36.775Z,11.99
2019-05-30T01:13:36.784Z,12.03
2019-05-30T01:14:36.781Z,12.03
2019-05-30T01:15:36.777Z,12.03
2019-05-30T01:16:36.776Z,11.94
2019-05-30T01:17:36.776Z,12.03
2019-05-30T01:18:36.786Z,12.07
2019-05-30T01:19:36.772Z,12.03
2019-05-30T01:20:36.773Z,12.04
2019-05-30T01:21:36.770Z,11.93
2019-05-30T01:22:36.771Z,12.04
2019-05-30T01:23:36.787Z,12.03
2019-05-30T01:24:36.769Z,11.89
2019-05-30T01:25:36.767Z,11.91
2019-05-30T01:26:36.767Z,11.97
2019-05-30T01:27:36.768Z,12.03
2019-05-30T01:28:36.770Z,12.03
2019-05-30T01:29:36.764Z,12.04
2019-05-30T01:30:36.770Z,12.07
2019-05-30T01:31:36.770Z,12.03
2019-05-30T01:32:36.764Z,11.99
2019-05-30T01:33:36.774Z,12.04
2019-05-30T01:34:36.761Z,12.04
2019-05-30T01:35:36.761Z,12.03
2019-05-30T01:36:36.762Z,12.07
2019-05-30T01:37:36.772Z,12.03
2019-05-30T01:38:36.762Z,12.03
2019-05-30T01:39:36.762Z,12.03
2019-05-30T01:40:36.762Z,12.03
2019-05-30T01:41:36.763Z,12.03
2019-05-30T01:42:36.761Z,12.04
2019-05-30T01:43:36.757Z,12.07
2019-05-30T01:44:36.765Z,12.03
2019-05-30T01:45:36.754Z,12.03
2019-05-30T01:46:36.754Z,12.07
2019-05-30T01:47:36.756Z,12.07
2019-05-30T01:48:36.756Z,12.03
2019-05-30T01:49:36.788Z,12.02
2019-05-30T01:50:36.758Z,12.04
2019-05-30T01:51:36.755Z,12.03
2019-05-30T01:52:36.751Z,12.07
2019-05-30T01:53:36.754Z,12.07
2019-05-30T01:54:36.755Z,12.01
2019-05-30T01:55:36.752Z,12.04
2019-05-30T01:56:36.806Z,11.99
2019-05-30T01:57:36.755Z,12.06
2019-05-30T01:58:36.753Z,12.07
2019-05-30T01:59:36.761Z,12.02
2019-05-30T02:00:37.233Z,12.03
2019-05-30T02:01:36.744Z,12.02
2019-05-30T02:02:36.745Z,12.07
2019-05-30T02:03:36.757Z,12.04
2019-05-30T02:04:36.756Z,12.04
2019-05-30T02:05:36.744Z,12.01
2019-05-30T02:06:38.144Z,12.04
2019-05-30T02:07:36.745Z,11.91
2019-05-30T02:08:36.744Z,12.04
2019-05-30T02:09:36.752Z,12.01
2019-05-30T02:10:36.754Z,12.01
2019-05-30T02:11:36.744Z,12.04
2019-05-30T02:12:36.741Z,12.01
2019-05-30T02:13:36.744Z,12.04
2019-05-30T02:14:36.746Z,12.01
2019-05-30T02:15:36.741Z,12.02
2019-05-30T02:16:36.761Z,12.01
2019-05-30T02:17:36.737Z,11.84
2019-05-30T02:18:36.740Z,11.92
2019-05-30T02:19:36.765Z,11.84
2019-05-30T02:20:36.737Z,11.98
2019-05-30T02:21:36.734Z,11.99
2019-05-30T02:22:36.738Z,12.01
2019-05-30T02:23:36.740Z,12.04
2019-05-30T02:24:36.737Z,12.04
2019-05-30T02:25:36.742Z,12.02
2019-05-30T02:26:36.732Z,12.01
2019-05-30T02:27:36.744Z,11.96
2019-05-30T02:28:36.730Z,11.99
2019-05-30T02:29:36.731Z,11.98
2019-05-30T02:30:36.737Z,11.99
2019-05-30T02:31:39.349Z,12.02
2019-05-30T02:32:36.729Z,11.98
2019-05-30T02:33:36.747Z,11.96
2019-05-30T02:34:36.728Z,11.98
2019-05-30T02:35:36.731Z,12.01
2019-05-30T02:36:36.735Z,11.99
2019-05-30T02:37:36.741Z,11.98
2019-05-30T02:38:36.727Z,11.94
2019-05-30T02:39:36.726Z,11.98
2019-05-30T02:40:36.748Z,12.02
2019-05-30T02:41:36.723Z,12.02
2019-05-30T02:42:36.723Z,11.98
2019-05-30T02:43:36.738Z,11.96
2019-05-30T02:44:36.723Z,11.99
2019-05-30T02:45:36.725Z,11.86
2019-05-30T02:46:36.723Z,11.98
2019-05-30T02:47:44.394Z,11.93
2019-05-30T02:48:54.778Z,11.89
2019-05-30T02:49:44.431Z,11.99
2019-05-30T02:50:43.780Z,11.99
2019-05-30T02:51:36.723Z,11.98
2019-05-30T02:52:36.719Z,11.82
2019-05-30T02:53:36.718Z,11.98
2019-05-30T02:54:36.720Z,12.02
2019-05-30T02:55:36.714Z,12.02
2019-05-30T02:56:36.718Z,12.01
2019-05-30T02:57:36.727Z,11.98
2019-05-30T02:58:36.714Z,11.98
2019-05-30T02:59:36.735Z,11.89
2019-05-30T03:00:36.719Z,11.97
2019-05-30T03:01:36.716Z,11.97
2019-05-30T03:02:36.716Z,11.99
2019-05-30T03:03:36.710Z,11.84
2019-05-30T03:04:36.712Z,11.99
2019-05-30T03:05:36.724Z,11.97
2019-05-30T03:06:36.711Z,11.93
2019-05-30T03:07:36.706Z,11.97
2019-05-30T03:08:36.707Z,12.01
2019-05-30T03:09:36.709Z,11.98
2019-05-30T03:10:36.726Z,11.99
2019-05-30T03:11:36.708Z,11.98
2019-05-30T03:12:36.723Z,11.82
2019-05-30T03:13:36.708Z,11.98
2019-05-30T03:14:36.705Z,11.86
2019-05-30T03:15:36.708Z,11.84
2019-05-30T03:16:36.737Z,12.01
2019-05-30T03:17:36.711Z,11.98
2019-05-30T03:18:36.713Z,11.97
2019-05-30T03:19:36.705Z,11.89
2019-05-30T03:20:36.730Z,11.96
2019-05-30T03:21:36.711Z,11.99
2019-05-30T03:22:36.704Z,11.99
2019-05-30T03:23:36.707Z,11.97
2019-05-30T03:24:36.699Z,11.92
2019-05-30T03:25:36.699Z,11.96
2019-05-30T03:26:36.701Z,11.97
2019-05-30T03:27:36.703Z,11.82
2019-05-30T03:28:36.696Z,11.96
2019-05-30T03:29:36.696Z,11.97
2019-05-30T03:30:36.722Z,11.98
2019-05-30T03:31:36.707Z,11.89
2019-05-30T03:33:03.690Z,11.99
2019-05-30T03:33:41.384Z,11.84
2019-05-30T03:34:36.702Z,11.97
2019-05-30T03:35:42.630Z,11.96
2019-05-30T03:36:36.699Z,11.94
2019-05-30T03:37:36.710Z,11.96
2019-05-30T03:38:36.689Z,11.96
2019-05-30T03:39:36.693Z,11.99
2019-05-30T03:40:36.696Z,11.99
2019-05-30T03:41:36.692Z,11.99
2019-05-30T03:42:36.696Z,11.97
2019-05-30T03:43:36.691Z,11.96
2019-05-30T03:44:36.690Z,11.99
2019-05-30T03:45:36.686Z,11.96
2019-05-30T03:46:36.696Z,11.82
2019-05-30T03:47:36.693Z,11.96
2019-05-30T03:48:36.685Z,11.96
2019-05-30T03:49:36.688Z,11.96
2019-05-30T03:50:36.694Z,11.96
2019-05-30T03:51:36.687Z,11.96
2019-05-30T03:52:36.685Z,11.94
2019-05-30T03:53:36.685Z,11.97
2019-05-30T03:54:36.682Z,11.84
2019-05-30T03:55:36.681Z,11.99
2019-05-30T03:56:36.684Z,11.97
2019-05-30T03:57:36.695Z,11.96
2019-05-30T03:58:36.687Z,11.93
2019-05-30T03:59:36.681Z,11.99
2019-05-30T04:00:36.680Z,11.97
2019-05-30T04:01:36.679Z,11.96
2019-05-30T04:02:55.238Z,11.99
2019-05-30T04:03:36.683Z,11.97
2019-05-30T04:04:36.678Z,11.97
2019-05-30T04:05:36.676Z,11.94
2019-05-30T04:06:36.677Z,11.99
2019-05-30T04:07:36.684Z,11.96
2019-05-30T04:08:36.677Z,11.98
2019-05-30T04:09:36.692Z,11.94
2019-05-30T04:10:36.674Z,11.98
2019-05-30T04:11:37.600Z,11.96
2019-05-30T04:12:36.687Z,11.93
2019-05-30T04:13:36.671Z,11.96
2019-05-30T04:14:36.676Z,11.97
2019-05-30T04:15:36.670Z,11.98
2019-05-30T04:16:36.699Z,11.97
2019-05-30T04:17:36.670Z,11.79
2019-05-30T04:18:36.715Z,11.96
2019-05-30T04:19:36.672Z,11.94
2019-05-30T04:20:36.670Z,11.93
2019-05-30T04:21:36.666Z,11.98
2019-05-30T04:22:36.662Z,11.84
2019-05-30T04:23:36.667Z,11.96
2019-05-30T04:24:36.669Z,11.98
2019-05-30T04:25:36.666Z,11.81
2019-05-30T04:26:36.666Z,11.96
2019-05-30T04:27:36.665Z,11.96
2019-05-30T04:28:36.664Z,11.93
2019-05-30T04:29:36.663Z,11.79
2019-05-30T04:30:36.661Z,11.99
2019-05-30T04:31:36.660Z,11.82
2019-05-30T04:32:36.668Z,11.82
2019-05-30T04:33:36.667Z,11.98
2019-05-30T04:34:36.670Z,11.97
2019-05-30T04:35:36.660Z,11.96
2019-05-30T04:36:36.656Z,11.94
2019-05-30T04:37:36.656Z,11.96
2019-05-30T04:38:36.671Z,11.79
2019-05-30T04:39:36.655Z,11.96
2019-05-30T04:40:36.657Z,11.96
2019-05-30T04:41:36.651Z,11.97
2019-05-30T04:42:36.656Z,11.96
2019-05-30T04:43:36.658Z,11.99
2019-05-30T04:44:36.651Z,11.97
2019-05-30T04:45:36.652Z,11.96
2019-05-30T04:46:36.652Z,11.79
2019-05-30T04:47:36.690Z,11.84
2019-05-30T04:48:36.660Z,11.96
2019-05-30T04:49:36.647Z,11.89
2019-05-30T04:50:36.652Z,11.96
2019-05-30T04:51:36.656Z,11.96
2019-05-30T04:52:36.648Z,11.82
2019-05-30T04:53:36.658Z,11.97
2019-05-30T04:54:36.660Z,11.99
2019-05-30T04:55:36.685Z,11.99
2019-05-30T04:56:36.649Z,11.96
2019-05-30T04:57:36.644Z,11.97
2019-05-30T04:58:41.498Z,11.97
2019-05-30T04:59:36.645Z,11.97
2019-05-30T05:00:36.642Z,11.97
2019-05-30T05:01:36.642Z,11.98
2019-05-30T05:02:36.646Z,11.99
2019-05-30T05:03:45.954Z,11.97
2019-05-30T05:04:36.665Z,11.97
2019-05-30T05:05:36.641Z,11.99
2019-05-30T05:06:36.641Z,11.98
2019-05-30T05:07:36.640Z,12.01
2019-05-30T05:08:36.637Z,11.96
2019-05-30T05:09:36.639Z,12.01
2019-05-30T05:10:36.656Z,11.84
2019-05-30T05:11:36.641Z,11.97
2019-05-30T05:12:36.637Z,11.99
2019-05-30T05:13:36.638Z,11.97
2019-05-30T05:14:36.642Z,11.97
2019-05-30T05:15:36.633Z,11.82
2019-05-30T05:16:36.727Z,11.84
2019-05-30T05:17:36.633Z,11.98
2019-05-30T05:18:36.631Z,11.98
2019-05-30T05:19:36.634Z,11.98
2019-05-30T05:20:36.634Z,11.98
2019-05-30T05:21:36.629Z,11.98
2019-05-30T05:22:36.631Z,11.89
2019-05-30T05:23:36.627Z,11.99
2019-05-30T05:24:36.634Z,12.01
2019-05-30T05:25:36.628Z,11.98
2019-05-30T05:26:36.626Z,11.98
2019-05-30T05:27:36.629Z,11.82
2019-05-30T05:28:36.627Z,11.98
2019-05-30T05:29:36.634Z,11.99
2019-05-30T05:30:36.629Z,12.01
2019-05-30T05:31:36.634Z,11.83
2019-05-30T05:32:36.628Z,12.01
2019-05-30T05:33:36.626Z,11.99
2019-05-30T05:34:36.908Z,11.87
2019-05-30T05:35:36.622Z,12.01
2019-05-30T05:36:36.624Z,12.02
2019-05-30T05:37:36.619Z,11.99
2019-05-30T05:38:36.622Z,12.02
2019-05-30T05:39:36.620Z,11.99
2019-05-30T05:40:36.623Z,11.98
2019-05-30T05:41:36.619Z,12.01
2019-05-30T05:42:36.621Z,11.98
2019-05-30T05:43:36.618Z,12.01
2019-05-30T05:44:36.622Z,12.01
2019-05-30T05:45:36.628Z,11.98
2019-05-30T05:46:36.617Z,11.98
2019-05-30T05:47:36.615Z,12.01
2019-05-30T05:48:36.614Z,11.83
2019-05-30T05:49:36.614Z,12.02
2019-05-30T05:50:36.626Z,11.98
2019-05-30T05:51:36.615Z,12.02
2019-05-30T05:52:36.612Z,12.02
2019-05-30T05:53:36.611Z,12.02
2019-05-30T05:54:36.609Z,11.98
2019-05-30T05:55:36.614Z,12.01
2019-05-30T05:56:36.609Z,12.02
2019-05-30T05:57:36.610Z,12.01
2019-05-30T05:58:36.612Z,12.02
2019-05-30T05:59:36.606Z,12.02
2019-05-30T06:00:36.617Z,11.94
2019-05-30T06:01:36.607Z,12.01
2019-05-30T06:02:36.608Z,12.01
2019-05-30T06:03:36.611Z,12.01
2019-05-30T06:04:36.605Z,11.84
2019-05-30T06:05:50.245Z,12.01
2019-05-30T06:06:36.603Z,12.02
2019-05-30T06:07:36.604Z,12.01
2019-05-30T06:08:36.602Z,12.02
2019-05-30T06:09:36.602Z,11.98
2019-05-30T06:10:36.611Z,12.01
2019-05-30T06:11:36.606Z,12.02
2019-05-30T06:12:36.601Z,12.02
2019-05-30T06:13:36.612Z,12.01
2019-05-30T06:14:36.603Z,12.01
2019-05-30T06:15:36.613Z,12.03
2019-05-30T06:16:36.603Z,12.02
2019-05-30T06:17:36.597Z,12.06
2019-05-30T06:18:36.594Z,12.07
2019-05-30T06:19:45.997Z,12.07
2019-05-30T06:20:36.596Z,12.04
2019-05-30T06:21:36.598Z,12.09
2019-05-30T06:22:36.594Z,12.08
2019-05-30T06:23:36.595Z,12.08
2019-05-30T06:24:36.606Z,12.08
2019-05-30T06:25:36.593Z,12.11
2019-05-30T06:26:36.597Z,12.13
2019-05-30T06:27:36.600Z,12.12
2019-05-30T06:28:38.299Z,12.11
2019-05-30T06:29:36.597Z,12.08
2019-05-30T06:30:36.589Z,12.08
2019-05-30T06:31:36.873Z,12.11
2019-05-30T06:32:36.589Z,12.14
2019-05-30T06:33:36.589Z,12.12
2019-05-30T06:34:39.353Z,12.12
2019-05-30T06:35:36.588Z,12.16
2019-05-30T06:36:36.598Z,12.12
2019-05-30T06:37:36.589Z,12.11
2019-05-30T06:38:36.584Z,11.94
2019-05-30T06:39:36.588Z,12.14
2019-05-30T06:40:36.611Z,12.14
2019-05-30T06:41:36.592Z,12.16
2019-05-30T06:42:36.587Z,12.16
2019-05-30T06:43:36.582Z,12.04
2019-05-30T06:44:36.582Z,12.16
2019-05-30T06:45:36.608Z,12.11
2019-05-30T06:46:36.611Z,12.16
2019-05-30T06:47:36.581Z,12.16
2019-05-30T06:48:36.581Z,12.14
2019-05-30T06:49:36.580Z,12.09
2019-05-30T06:50:36.587Z,12.12
2019-05-30T06:51:36.583Z,12.19
2019-05-30T06:52:36.602Z,12.16
2019-05-30T06:53:36.601Z,12.17
2019-05-30T06:54:36.579Z,12.16
2019-05-30T06:55:36.574Z,12.19
2019-05-30T06:56:36.580Z,11.99
2019-05-30T06:57:36.577Z,12.11
2019-05-30T06:58:48.070Z,12.22
2019-05-30T06:59:36.575Z,12.21
2019-05-30T07:00:36.572Z,12.22
2019-05-30T07:01:36.574Z,12.21
2019-05-30T07:02:36.582Z,12.18
2019-05-30T07:03:36.675Z,12.19
2019-05-30T07:04:50.990Z,12.09
2019-05-30T07:05:36.970Z,12.09
2019-05-30T07:06:36.896Z,12.21
2019-05-30T07:07:36.741Z,12.19
2019-05-30T07:08:36.568Z,12.19
2019-05-30T07:09:36.572Z,12.24
2019-05-30T07:10:36.567Z,12.21
2019-05-30T07:11:36.566Z,12.21
2019-05-30T07:12:36.570Z,12.19
2019-05-30T07:13:36.569Z,12.27
2019-05-30T07:14:36.564Z,12.24
2019-05-30T07:15:36.571Z,12.24
2019-05-30T07:16:36.565Z,12.30
2019-05-30T07:17:36.572Z,12.21
2019-05-30T07:18:36.889Z,12.32
2019-05-30T07:19:37.844Z,12.35
2019-05-30T07:20:36.562Z,12.35
2019-05-30T07:21:36.562Z,12.38
2019-05-30T07:22:36.569Z,12.24
2019-05-30T07:23:39.307Z,12.41
2019-05-30T07:24:36.560Z,12.38
2019-05-30T07:25:36.558Z,12.41
2019-05-30T07:26:36.557Z,12.47
2019-05-30T07:27:36.566Z,12.40
2019-05-30T07:28:36.556Z,12.43
2019-05-30T07:29:36.557Z,12.45
2019-05-30T07:30:36.578Z,12.48
2019-05-30T07:31:37.411Z,12.46
2019-05-30T07:32:36.566Z,12.31
2019-05-30T07:33:36.561Z,12.50
2019-05-30T07:34:36.563Z,12.47
2019-05-30T07:35:36.561Z,12.43
2019-05-30T07:36:36.565Z,12.45
2019-05-30T07:37:36.565Z,12.45
2019-05-30T07:38:36.553Z,12.50
2019-05-30T07:39:37.616Z,12.47
2019-05-30T07:40:36.552Z,12.50
2019-05-30T07:41:36.550Z,12.33
2019-05-30T07:42:36.575Z,12.55
2019-05-30T07:43:36.573Z,12.51
2019-05-30T07:44:36.557Z,12.40
2019-05-30T07:45:36.549Z,12.40
2019-05-30T07:46:37.286Z,12.53
2019-05-30T07:47:36.554Z,12.52
2019-05-30T07:48:36.547Z,12.57
2019-05-30T07:49:36.549Z,12.45
2019-05-30T07:50:36.545Z,12.57
2019-05-30T07:51:36.545Z,12.53
2019-05-30T07:52:36.556Z,12.53
2019-05-30T07:53:36.543Z,12.52
2019-05-30T07:54:36.543Z,12.52
2019-05-30T07:55:36.545Z,12.50
2019-05-30T07:56:38.011Z,12.57
2019-05-30T07:57:39.716Z,12.51
2019-05-30T07:58:37.398Z,12.61
2019-05-30T07:59:36.539Z,12.58
2019-05-30T08:00:37.650Z,12.47
2019-05-30T08:01:36.541Z,12.52
2019-05-30T08:02:37.898Z,12.55
2019-05-30T08:03:36.547Z,12.47
2019-05-30T08:04:37.771Z,12.47
2019-05-30T08:05:36.536Z,12.52
2019-05-30T08:06:36.536Z,12.40
2019-05-30T08:07:36.537Z,12.48
2019-05-30T08:08:36.545Z,12.53
2019-05-30T08:09:36.536Z,12.48
2019-05-30T08:10:36.537Z,12.50
2019-05-30T08:11:36.538Z,12.48
2019-05-30T08:12:36.535Z,12.48
2019-05-30T08:13:37.320Z,12.47
2019-05-30T08:14:37.350Z,12.48
2019-05-30T08:15:43.023Z,12.47
2019-05-30T08:16:37.507Z,12.46
2019-05-30T08:17:37.716Z,12.46
2019-05-30T08:18:37.832Z,12.48
2019-05-30T08:19:36.532Z,12.47
2019-05-30T08:20:36.533Z,12.51
2019-05-30T08:21:36.528Z,12.55
2019-05-30T08:22:36.557Z,12.53
2019-05-30T08:23:36.538Z,12.45
2019-05-30T08:24:36.583Z,12.55
2019-05-30T08:25:36.648Z,12.52
2019-05-30T08:26:36.574Z,12.52
2019-05-30T08:27:36.611Z,12.53
2019-05-30T08:28:36.568Z,12.48
2019-05-30T08:29:36.533Z,12.50
2019-05-30T08:30:36.702Z,12.52
2019-05-30T08:31:36.875Z,12.53
2019-05-30T08:32:36.925Z,12.52
2019-05-30T08:33:37.574Z,12.52
2019-05-30T08:34:36.726Z,12.56
2019-05-30T08:35:47.673Z,12.57
2019-05-30T08:36:37.118Z,12.56
2019-05-30T08:37:37.255Z,12.55
2019-05-30T08:38:37.443Z,12.55
2019-05-30T08:39:37.362Z,12.47
2019-05-30T08:40:37.679Z,12.53
2019-05-30T08:41:37.384Z,12.58
2019-05-30T08:42:38.214Z,12.53
2019-05-30T08:43:37.566Z,12.57
2019-05-30T08:44:36.515Z,12.56
2019-05-30T08:45:37.816Z,12.55
2019-05-30T08:46:36.516Z,12.55
2019-05-30T08:47:36.518Z,12.53
2019-05-30T08:48:36.516Z,12.52
2019-05-30T08:49:36.513Z,12.55
2019-05-30T08:50:40.852Z,12.41
2019-05-30T08:51:38.255Z,12.50
2019-05-30T08:52:36.619Z,12.55
2019-05-30T08:53:36.612Z,12.53
2019-05-30T08:54:36.521Z,12.53
2019-05-30T08:55:36.534Z,12.55
2019-05-30T08:56:36.605Z,12.57
2019-05-30T08:57:36.726Z,12.55
2019-05-30T08:58:36.797Z,12.56
2019-05-30T08:59:36.708Z,12.56
2019-05-30T09:00:36.509Z,12.53
2019-05-30T09:01:37.456Z,12.57
2019-05-30T09:02:36.653Z,12.58
2019-05-30T09:03:38.374Z,12.60
2019-05-30T09:04:37.819Z,12.57
2019-05-30T09:05:36.505Z,12.58
2019-05-30T09:06:36.506Z,12.58
2019-05-30T09:07:36.678Z,12.60
2019-05-30T09:08:36.502Z,12.60
2019-05-30T09:09:36.506Z,12.58
2019-05-30T09:10:37.856Z,12.57
2019-05-30T09:11:37.672Z,12.56
2019-05-30T09:12:38.539Z,12.58
2019-05-30T09:13:37.856Z,12.56
2019-05-30T09:14:37.845Z,12.55
2019-05-30T09:15:37.627Z,12.58
2019-05-30T09:16:36.498Z,12.56
2019-05-30T09:17:38.690Z,12.51
2019-05-30T09:18:37.989Z,12.60
2019-05-30T09:19:37.898Z,12.62
2019-05-30T09:20:37.950Z,12.58
2019-05-30T09:21:36.854Z,12.57
2019-05-30T09:22:37.959Z,12.58
2019-05-30T09:23:37.340Z,12.57
2019-05-30T09:24:37.476Z,12.58
2019-05-30T09:25:37.207Z,12.45
2019-05-30T09:26:38.421Z,12.57
2019-05-30T09:27:37.735Z,12.57
2019-05-30T09:28:36.491Z,12.58
2019-05-30T09:29:36.500Z,12.56
2019-05-30T09:30:36.503Z,12.57
2019-05-30T09:31:36.491Z,12.60
2019-05-30T09:32:36.493Z,12.56
2019-05-30T09:33:36.490Z,12.50
2019-05-30T09:34:36.498Z,12.58
2019-05-30T09:35:36.488Z,12.57
2019-05-30T09:36:36.489Z,12.58
2019-05-30T09:37:36.495Z,12.60
2019-05-30T09:38:36.487Z,12.56
2019-05-30T09:39:36.515Z,12.60
2019-05-30T09:40:36.484Z,12.61
2019-05-30T09:41:36.490Z,12.62
2019-05-30T09:42:36.489Z,12.61
2019-05-30T09:43:36.487Z,12.63
2019-05-30T09:44:36.488Z,12.62
2019-05-30T09:45:36.492Z,12.57
2019-05-30T09:46:36.484Z,12.63
2019-05-30T09:47:36.507Z,12.61
2019-05-30T09:48:36.486Z,12.61
2019-05-30T09:49:36.491Z,12.61
2019-05-30T09:50:36.488Z,12.61
2019-05-30T09:51:36.481Z,12.55
2019-05-30T09:52:36.487Z,12.61
2019-05-30T09:53:36.481Z,12.63
2019-05-30T09:54:36.486Z,12.65
2019-05-30T09:55:36.481Z,12.63
2019-05-30T09:56:36.479Z,12.61
2019-05-30T09:57:36.475Z,12.61
2019-05-30T09:58:36.477Z,12.65
2019-05-30T09:59:36.486Z,12.60
2019-05-30T10:00:36.483Z,12.66
2019-05-30T10:01:36.477Z,12.65
2019-05-30T10:02:36.487Z,12.67
2019-05-30T10:03:36.483Z,12.63
2019-05-30T10:04:36.502Z,12.66
2019-05-30T10:05:36.492Z,12.63
2019-05-30T10:06:36.606Z,12.67
2019-05-30T10:07:36.488Z,12.55
2019-05-30T10:08:36.470Z,12.66
2019-05-30T10:09:36.500Z,12.65
2019-05-30T10:10:36.470Z,12.70
2019-05-30T10:11:36.485Z,12.70
2019-05-30T10:12:36.494Z,12.66
2019-05-30T10:13:36.468Z,12.70
2019-05-30T10:14:36.474Z,12.68
2019-05-30T10:15:36.481Z,12.70
2019-05-30T10:16:36.472Z,12.68
2019-05-30T10:17:36.473Z,12.67
2019-05-30T10:18:36.476Z,12.68
2019-05-30T10:19:36.471Z,12.56
2019-05-30T10:20:36.476Z,12.68
2019-05-30T10:21:36.465Z,12.70
2019-05-30T10:22:36.463Z,12.70
2019-05-30T10:23:36.466Z,12.70
2019-05-30T10:24:36.488Z,12.66
2019-05-30T10:25:36.467Z,12.70
2019-05-30T10:26:36.463Z,12.60
2019-05-30T10:27:36.465Z,12.68
2019-05-30T10:28:36.461Z,12.68
2019-05-30T10:29:36.475Z,12.71
2019-05-30T10:30:36.463Z,12.73
2019-05-30T10:31:36.460Z,12.57
2019-05-30T10:32:36.463Z,12.72
2019-05-30T10:33:36.504Z,12.72
2019-05-30T10:34:36.459Z,12.56
2019-05-30T10:35:36.468Z,12.72
2019-05-30T10:36:44.365Z,12.71
2019-05-30T10:37:36.456Z,12.62
2019-05-30T10:38:36.474Z,12.71
2019-05-30T10:39:36.461Z,12.73
2019-05-30T10:40:36.483Z,12.73
2019-05-30T10:41:36.449Z,12.75
2019-05-30T10:42:36.451Z,12.71
2019-05-30T10:43:36.454Z,12.65
2019-05-30T10:44:36.520Z,12.72
2019-05-30T10:45:38.575Z,12.71
2019-05-30T10:46:36.454Z,12.68
2019-05-30T10:47:36.453Z,12.73
2019-05-30T10:48:36.451Z,12.73
2019-05-30T10:49:36.451Z,12.72
2019-05-30T10:50:36.463Z,12.73
2019-05-30T10:51:36.450Z,12.60
2019-05-30T10:52:36.453Z,12.72
2019-05-30T10:53:37.609Z,12.72
2019-05-30T10:54:36.447Z,12.72
2019-05-30T10:55:36.456Z,12.71
2019-05-30T10:56:36.445Z,12.72
2019-05-30T10:57:36.458Z,12.76
2019-05-30T10:58:36.445Z,12.73
2019-05-30T10:59:36.449Z,12.73
2019-05-30T11:00:36.455Z,12.76
2019-05-30T11:01:36.445Z,12.77
2019-05-30T11:02:36.445Z,12.73
2019-05-30T11:03:36.443Z,12.76
2019-05-30T11:04:36.442Z,12.77
2019-05-30T11:05:36.444Z,12.76
2019-05-30T11:06:36.452Z,12.75
2019-05-30T11:07:36.440Z,12.75
2019-05-30T11:08:36.443Z,12.77
2019-05-30T11:09:36.438Z,12.77
2019-05-30T11:10:36.441Z,12.67
2019-05-30T11:11:36.445Z,12.77
2019-05-30T11:12:36.437Z,12.76
2019-05-30T11:13:36.438Z,12.76
2019-05-30T11:14:36.453Z,12.80
2019-05-30T11:15:36.438Z,12.71
2019-05-30T11:16:36.447Z,12.72
2019-05-30T11:17:36.434Z,12.76
2019-05-30T11:18:36.438Z,12.76
2019-05-30T11:19:36.441Z,12.77
2019-05-30T11:20:36.431Z,12.81
2019-05-30T11:21:36.436Z,12.66
2019-05-30T11:22:36.433Z,12.78
2019-05-30T11:23:36.429Z,12.81
2019-05-30T11:24:36.438Z,12.78
2019-05-30T11:25:36.431Z,12.80
2019-05-30T11:26:36.433Z,12.80
2019-05-30T11:27:36.430Z,12.81
2019-05-30T11:28:36.431Z,12.80
2019-05-30T11:29:36.429Z,12.81
2019-05-30T11:30:36.430Z,12.81
2019-05-30T11:31:36.442Z,12.81
2019-05-30T11:32:36.429Z,12.81
2019-05-30T11:33:36.430Z,12.68
2019-05-30T11:34:36.426Z,12.81
2019-05-30T11:35:36.426Z,12.81
2019-05-30T11:36:36.437Z,12.81
2019-05-30T11:37:36.424Z,12.70
2019-05-30T11:38:36.431Z,12.81
2019-05-30T11:39:36.426Z,12.81
2019-05-30T11:40:36.456Z,12.77
2019-05-30T11:41:36.431Z,12.81
2019-05-30T11:42:36.422Z,12.81
2019-05-30T11:43:36.426Z,12.81
2019-05-30T11:44:36.419Z,12.81
2019-05-30T11:45:36.426Z,12.76
2019-05-30T11:46:36.435Z,12.81
2019-05-30T11:47:36.427Z,12.66
2019-05-30T11:48:36.417Z,12.77
2019-05-30T11:49:36.420Z,12.80
2019-05-30T11:50:36.416Z,12.77
2019-05-30T11:51:36.453Z,12.68
2019-05-30T11:52:36.417Z,12.77
2019-05-30T11:53:36.416Z,12.77
2019-05-30T11:54:36.414Z,12.77
2019-05-30T11:55:36.415Z,12.77
2019-05-30T11:56:36.413Z,12.76
2019-05-30T11:57:36.428Z,12.76
2019-05-30T11:58:36.415Z,12.76
2019-05-30T11:59:36.417Z,12.72
2019-05-30T12:00:36.433Z,12.75
2019-05-30T12:01:36.421Z,12.77
2019-05-30T12:02:36.508Z,12.70
2019-05-30T12:03:36.411Z,12.73
2019-05-30T12:04:36.412Z,12.77
2019-05-30T12:05:36.411Z,12.63
2019-05-30T12:06:36.414Z,12.75
2019-05-30T12:07:37.081Z,12.75
2019-05-30T12:08:36.409Z,12.73
2019-05-30T12:09:36.408Z,12.72
2019-05-30T12:10:36.462Z,12.71
2019-05-30T12:11:36.406Z,12.71
2019-05-30T12:12:36.408Z,12.72
2019-05-30T12:13:36.414Z,12.73
2019-05-30T12:14:36.409Z,12.72
2019-05-30T12:15:36.401Z,12.56
2019-05-30T12:16:36.738Z,12.72
2019-05-30T12:17:36.407Z,12.71
2019-05-30T12:18:36.409Z,12.73
2019-05-30T12:19:36.402Z,12.71
2019-05-30T12:20:36.402Z,12.66
2019-05-30T12:21:36.400Z,12.71
2019-05-30T12:22:36.404Z,12.71
2019-05-30T12:23:36.405Z,12.71
2019-05-30T12:24:36.401Z,12.70
2019-05-30T12:25:36.412Z,12.68
2019-05-30T12:26:36.404Z,12.60
2019-05-30T12:27:36.394Z,12.72
2019-05-30T12:28:36.400Z,12.65
2019-05-30T12:29:36.405Z,12.56
2019-05-30T12:30:36.397Z,12.71
2019-05-30T12:31:36.398Z,12.70
2019-05-30T12:32:36.398Z,12.71
2019-05-30T12:33:36.410Z,12.68
2019-05-30T12:34:36.401Z,12.68
2019-05-30T12:35:36.394Z,12.71
2019-05-30T12:36:36.392Z,12.71
2019-05-30T12:37:50.238Z,12.56
2019-05-30T12:38:36.412Z,12.71
2019-05-30T12:39:36.395Z,12.70
2019-05-30T12:40:36.431Z,12.71
2019-05-30T12:41:36.391Z,12.71
2019-05-30T12:42:36.391Z,12.72
2019-05-30T12:43:36.392Z,12.68
2019-05-30T12:44:36.387Z,12.71
2019-05-30T12:45:36.436Z,12.62
2019-05-30T12:46:36.388Z,12.71
2019-05-30T12:47:36.388Z,12.70
2019-05-30T12:48:36.398Z,12.71
2019-05-30T12:49:36.385Z,12.70
2019-05-30T12:50:36.386Z,12.72
2019-05-30T12:51:36.385Z,12.71
2019-05-30T12:52:36.392Z,12.70